sensor_id;sensor_type;location;lat;lon;timestamp;P1;durP1;ratioP1;P2;durP2;ratioP2
16820;SDS011;8527;49.740;6.604;2022-08-04T00:04:44;6.07;;;2.50;;
16820;SDS011;8527;49.740;6.604;2022-08-04T00:09:51;5.53;;;2.20;;
16820;SDS011;8527;49.740;6.604;2022-08-04T00:14:57;2.88;;;2.28;;
16820;SDS011;8527;49.740;6.604;2022-08-04T00:20:00;3.55;;;2.25;;
16820;SDS011;8527;49.740;6.604;2022-08-04T00:25:01;3.50;;;2.30;;
16820;SDS011;8527;49.740;6.604;2022-08-04T00:30:09;5.90;;;2.40;;
16820;SDS011;8527;49.740;6.604;2022-08-04T00:40:17;3.17;;;2.50;;
16820;SDS011;8527;49.740;6.604;2022-08-04T00:51:13;9.00;;;2.80;;
16820;SDS011;8527;49.740;6.604;2022-08-04T01:01:58;4.03;;;2.40;;
16820;SDS011;8527;49.740;6.604;2022-08-04T01:12:42;2.53;;;2.33;;
16820;SDS011;8527;49.740;6.604;2022-08-04T01:18:02;3.42;;;2.50;;
16820;SDS011;8527;49.740;6.604;2022-08-04T01:28:42;4.10;;;2.50;;
16820;SDS011;8527;49.740;6.604;2022-08-04T01:34:02;2.80;;;2.50;;
16820;SDS011;8527;49.740;6.604;2022-08-04T01:39:05;5.80;;;2.75;;
16820;SDS011;8527;49.740;6.604;2022-08-04T01:44:19;2.53;;;2.33;;
16820;SDS011;8527;49.740;6.604;2022-08-04T01:49:23;2.47;;;2.22;;
16820;SDS011;8527;49.740;6.604;2022-08-04T01:54:26;2.83;;;2.47;;
16820;SDS011;8527;49.740;6.604;2022-08-04T01:59:28;3.33;;;2.47;;
16820;SDS011;8527;49.740;6.604;2022-08-04T02:04:30;3.45;;;2.53;;
16820;SDS011;8527;49.740;6.604;2022-08-04T02:09:37;4.45;;;2.28;;
16820;SDS011;8527;49.740;6.604;2022-08-04T02:14:40;2.55;;;2.35;;
16820;SDS011;8527;49.740;6.604;2022-08-04T02:19:54;3.17;;;2.53;;
16820;SDS011;8527;49.740;6.604;2022-08-04T02:25:04;2.65;;;2.45;;
16820;SDS011;8527;49.740;6.604;2022-08-04T02:30:04;5.38;;;2.50;;
16820;SDS011;8527;49.740;6.604;2022-08-04T02:35:06;2.67;;;2.40;;
16820;SDS011;8527;49.740;6.604;2022-08-04T02:40:09;5.63;;;2.78;;
16820;SDS011;8527;49.740;6.604;2022-08-04T02:45:15;3.47;;;2.70;;
16820;SDS011;8527;49.740;6.604;2022-08-04T02:50:19;4.43;;;2.55;;
16820;SDS011;8527;49.740;6.604;2022-08-04T02:55:21;3.45;;;2.22;;
16820;SDS011;8527;49.740;6.604;2022-08-04T03:00:24;2.45;;;2.25;;
16820;SDS011;8527;49.740;6.604;2022-08-04T03:05:30;2.42;;;2.22;;
16820;SDS011;8527;49.740;6.604;2022-08-04T03:16:26;5.63;;;2.70;;
16820;SDS011;8527;49.740;6.604;2022-08-04T03:21:59;5.82;;;2.60;;
16820;SDS011;8527;49.740;6.604;2022-08-04T03:38:39;4.10;;;2.63;;
16820;SDS011;8527;49.740;6.604;2022-08-04T03:44:10;2.83;;;2.63;;
16820;SDS011;8527;49.740;6.604;2022-08-04T03:55:14;3.17;;;2.63;;
16820;SDS011;8527;49.740;6.604;2022-08-04T04:00:29;3.10;;;2.53;;
16820;SDS011;8527;49.740;6.604;2022-08-04T04:05:41;4.65;;;2.47;;
16820;SDS011;8527;49.740;6.604;2022-08-04T04:11:02;3.17;;;2.70;;
16820;SDS011;8527;49.740;6.604;2022-08-04T04:16:17;5.03;;;2.70;;
16820;SDS011;8527;49.740;6.604;2022-08-04T04:21:32;3.25;;;2.80;;
16820;SDS011;8527;49.740;6.604;2022-08-04T04:26:57;3.75;;;2.65;;
16820;SDS011;8527;49.740;6.604;2022-08-04T04:32:11;3.55;;;2.58;;
16820;SDS011;8527;49.740;6.604;2022-08-04T04:37:27;3.00;;;2.60;;
16820;SDS011;8527;49.740;6.604;2022-08-04T04:42:41;3.53;;;2.50;;
16820;SDS011;8527;49.740;6.604;2022-08-04T04:47:57;5.20;;;2.70;;
16820;SDS011;8527;49.740;6.604;2022-08-04T04:53:08;4.80;;;2.60;;
16820;SDS011;8527;49.740;6.604;2022-08-04T04:58:16;3.50;;;2.47;;
16820;SDS011;8527;49.740;6.604;2022-08-04T05:03:25;3.63;;;2.75;;
16820;SDS011;8527;49.740;6.604;2022-08-04T05:14:13;5.43;;;2.90;;
16820;SDS011;8527;49.740;6.604;2022-08-04T05:19:22;5.13;;;2.90;;
16820;SDS011;8527;49.740;6.604;2022-08-04T05:24:28;6.25;;;3.30;;
16820;SDS011;8527;49.740;6.604;2022-08-04T05:29:39;6.25;;;2.90;;
16820;SDS011;8527;49.740;6.604;2022-08-04T05:34:44;8.73;;;3.40;;
16820;SDS011;8527;49.740;6.604;2022-08-04T05:39:51;5.63;;;3.40;;
16820;SDS011;8527;49.740;6.604;2022-08-04T05:44:59;5.38;;;3.22;;
16820;SDS011;8527;49.740;6.604;2022-08-04T05:49:59;5.78;;;3.95;;
16820;SDS011;8527;49.740;6.604;2022-08-04T05:55:06;7.30;;;4.35;;
16820;SDS011;8527;49.740;6.604;2022-08-04T06:00:10;6.75;;;3.35;;
16820;SDS011;8527;49.740;6.604;2022-08-04T06:05:13;8.27;;;3.83;;
16820;SDS011;8527;49.740;6.604;2022-08-04T06:10:20;4.72;;;3.40;;
16820;SDS011;8527;49.740;6.604;2022-08-04T06:20:29;15.32;;;5.53;;
16820;SDS011;8527;49.740;6.604;2022-08-04T06:25:31;11.35;;;5.95;;
16820;SDS011;8527;49.740;6.604;2022-08-04T06:30:36;10.18;;;4.60;;
16820;SDS011;8527;49.740;6.604;2022-08-04T06:35:41;9.55;;;4.25;;
16820;SDS011;8527;49.740;6.604;2022-08-04T06:40:43;12.43;;;4.53;;
16820;SDS011;8527;49.740;6.604;2022-08-04T06:45:44;9.52;;;4.13;;
16820;SDS011;8527;49.740;6.604;2022-08-04T06:50:44;9.60;;;4.10;;
16820;SDS011;8527;49.740;6.604;2022-08-04T06:55:48;11.52;;;4.45;;
16820;SDS011;8527;49.740;6.604;2022-08-04T07:00:50;8.45;;;3.70;;
16820;SDS011;8527;49.740;6.604;2022-08-04T07:05:56;8.05;;;3.25;;
16820;SDS011;8527;49.740;6.604;2022-08-04T07:10:56;14.80;;;3.97;;
16820;SDS011;8527;49.740;6.604;2022-08-04T07:15:59;10.32;;;3.75;;
16820;SDS011;8527;49.740;6.604;2022-08-04T07:20:58;4.97;;;3.53;;
16820;SDS011;8527;49.740;6.604;2022-08-04T07:25:57;9.35;;;3.78;;
16820;SDS011;8527;49.740;6.604;2022-08-04T07:30:55;4.78;;;3.38;;
16820;SDS011;8527;49.740;6.604;2022-08-04T07:35:59;10.48;;;3.50;;
16820;SDS011;8527;49.740;6.604;2022-08-04T07:40:57;7.90;;;3.58;;
16820;SDS011;8527;49.740;6.604;2022-08-04T07:46:00;10.95;;;3.60;;
16820;SDS011;8527;49.740;6.604;2022-08-04T07:50:59;7.18;;;3.40;;
16820;SDS011;8527;49.740;6.604;2022-08-04T07:55:58;10.15;;;3.72;;
16820;SDS011;8527;49.740;6.604;2022-08-04T08:01:00;11.57;;;3.55;;
16820;SDS011;8527;49.740;6.604;2022-08-04T08:05:59;11.13;;;3.80;;
16820;SDS011;8527;49.740;6.604;2022-08-04T08:11:01;7.30;;;3.80;;
16820;SDS011;8527;49.740;6.604;2022-08-04T08:16:02;11.05;;;3.30;;
16820;SDS011;8527;49.740;6.604;2022-08-04T08:21:02;13.20;;;3.63;;
16820;SDS011;8527;49.740;6.604;2022-08-04T08:26:02;7.68;;;3.20;;
16820;SDS011;8527;49.740;6.604;2022-08-04T08:31:05;9.88;;;3.22;;
16820;SDS011;8527;49.740;6.604;2022-08-04T08:36:12;11.20;;;3.55;;
16820;SDS011;8527;49.740;6.604;2022-08-04T08:41:32;6.25;;;3.63;;
16820;SDS011;8527;49.740;6.604;2022-08-04T08:47:00;5.95;;;3.10;;
16820;SDS011;8527;49.740;6.604;2022-08-04T08:52:11;7.85;;;3.50;;
16820;SDS011;8527;49.740;6.604;2022-08-04T09:02:57;5.18;;;3.10;;
16820;SDS011;8527;49.740;6.604;2022-08-04T09:08:14;7.57;;;3.00;;
16820;SDS011;8527;49.740;6.604;2022-08-04T09:13:28;4.32;;;3.60;;
16820;SDS011;8527;49.740;6.604;2022-08-04T09:18:35;7.70;;;3.10;;
16820;SDS011;8527;49.740;6.604;2022-08-04T09:23:40;10.15;;;3.53;;
16820;SDS011;8527;49.740;6.604;2022-08-04T09:28:50;6.28;;;3.20;;
16820;SDS011;8527;49.740;6.604;2022-08-04T09:33:58;3.20;;;2.83;;
16820;SDS011;8527;49.740;6.604;2022-08-04T09:39:09;4.85;;;3.20;;
16820;SDS011;8527;49.740;6.604;2022-08-04T09:44:20;4.32;;;3.08;;
16820;SDS011;8527;49.740;6.604;2022-08-04T09:49:32;5.05;;;3.10;;
16820;SDS011;8527;49.740;6.604;2022-08-04T09:54:41;4.03;;;2.13;;
16820;SDS011;8527;49.740;6.604;2022-08-04T09:59:52;10.02;;;2.50;;
16820;SDS011;8527;49.740;6.604;2022-08-04T10:05:01;2.95;;;2.22;;
16820;SDS011;8527;49.740;6.604;2022-08-04T10:10:13;4.90;;;2.00;;
16820;SDS011;8527;49.740;6.604;2022-08-04T10:15:18;2.53;;;2.05;;
16820;SDS011;8527;49.740;6.604;2022-08-04T10:20:21;3.15;;;2.17;;
16820;SDS011;8527;49.740;6.604;2022-08-04T10:25:39;10.45;;;2.97;;
16820;SDS011;8527;49.740;6.604;2022-08-04T10:30:56;5.30;;;2.45;;
16820;SDS011;8527;49.740;6.604;2022-08-04T10:36:02;6.22;;;2.40;;
16820;SDS011;8527;49.740;6.604;2022-08-04T10:41:05;2.75;;;1.90;;
16820;SDS011;8527;49.740;6.604;2022-08-04T10:46:15;3.35;;;1.83;;
16820;SDS011;8527;49.740;6.604;2022-08-04T10:51:23;2.20;;;2.00;;
16820;SDS011;8527;49.740;6.604;2022-08-04T10:56:31;4.25;;;2.03;;
16820;SDS011;8527;49.740;6.604;2022-08-04T11:01:34;4.60;;;2.00;;
16820;SDS011;8527;49.740;6.604;2022-08-04T11:06:39;1.80;;;1.70;;
16820;SDS011;8527;49.740;6.604;2022-08-04T11:11:40;2.28;;;1.73;;
16820;SDS011;8527;49.740;6.604;2022-08-04T11:16:48;2.92;;;1.60;;
16820;SDS011;8527;49.740;6.604;2022-08-04T11:21:56;1.80;;;1.70;;
16820;SDS011;8527;49.740;6.604;2022-08-04T11:26:59;1.65;;;1.55;;
16820;SDS011;8527;49.740;6.604;2022-08-04T11:32:02;5.75;;;1.80;;
16820;SDS011;8527;49.740;6.604;2022-08-04T11:37:14;1.77;;;1.67;;
16820;SDS011;8527;49.740;6.604;2022-08-04T11:42:17;5.13;;;1.83;;
16820;SDS011;8527;49.740;6.604;2022-08-04T11:47:20;3.13;;;1.95;;
16820;SDS011;8527;49.740;6.604;2022-08-04T11:52:28;2.78;;;2.08;;
16820;SDS011;8527;49.740;6.604;2022-08-04T11:57:29;2.88;;;1.70;;
16820;SDS011;8527;49.740;6.604;2022-08-04T12:02:46;1.85;;;1.65;;
16820;SDS011;8527;49.740;6.604;2022-08-04T12:08:04;6.35;;;1.92;;
16820;SDS011;8527;49.740;6.604;2022-08-04T12:13:27;2.33;;;1.90;;
16820;SDS011;8527;49.740;6.604;2022-08-04T12:18:33;1.77;;;1.50;;
16820;SDS011;8527;49.740;6.604;2022-08-04T12:23:39;4.30;;;1.65;;
16820;SDS011;8527;49.740;6.604;2022-08-04T12:28:40;4.97;;;1.60;;
16820;SDS011;8527;49.740;6.604;2022-08-04T12:33:44;4.35;;;1.73;;
16820;SDS011;8527;49.740;6.604;2022-08-04T12:38:51;2.88;;;1.60;;
16820;SDS011;8527;49.740;6.604;2022-08-04T12:44:03;5.03;;;1.52;;
16820;SDS011;8527;49.740;6.604;2022-08-04T12:49:04;1.85;;;1.50;;
16820;SDS011;8527;49.740;6.604;2022-08-04T12:54:06;8.55;;;1.92;;
16820;SDS011;8527;49.740;6.604;2022-08-04T12:59:07;2.88;;;1.55;;
16820;SDS011;8527;49.740;6.604;2022-08-04T13:04:14;2.67;;;1.60;;
16820;SDS011;8527;49.740;6.604;2022-08-04T13:09:22;2.10;;;1.90;;
16820;SDS011;8527;49.740;6.604;2022-08-04T13:14:27;1.88;;;1.70;;
16820;SDS011;8527;49.740;6.604;2022-08-04T13:19:31;1.63;;;1.58;;
16820;SDS011;8527;49.740;6.604;2022-08-04T13:24:33;2.05;;;1.90;;
16820;SDS011;8527;49.740;6.604;2022-08-04T13:29:33;7.70;;;2.30;;
16820;SDS011;8527;49.740;6.604;2022-08-04T13:34:35;1.92;;;1.67;;
16820;SDS011;8527;49.740;6.604;2022-08-04T13:39:40;3.80;;;1.73;;
16820;SDS011;8527;49.740;6.604;2022-08-04T13:44:43;3.20;;;1.80;;
16820;SDS011;8527;49.740;6.604;2022-08-04T13:55:10;9.55;;;1.73;;
16820;SDS011;8527;49.740;6.604;2022-08-04T14:00:16;3.00;;;1.70;;
16820;SDS011;8527;49.740;6.604;2022-08-04T14:05:23;6.68;;;2.00;;
16820;SDS011;8527;49.740;6.604;2022-08-04T14:10:26;2.20;;;1.60;;
16820;SDS011;8527;49.740;6.604;2022-08-04T14:15:30;5.78;;;1.77;;
16820;SDS011;8527;49.740;6.604;2022-08-04T14:25:31;2.10;;;1.90;;
16820;SDS011;8527;49.740;6.604;2022-08-04T14:30:33;3.30;;;1.67;;
16820;SDS011;8527;49.740;6.604;2022-08-04T14:35:33;5.95;;;2.10;;
16820;SDS011;8527;49.740;6.604;2022-08-04T14:40:36;5.90;;;2.10;;
16820;SDS011;8527;49.740;6.604;2022-08-04T14:45:38;2.50;;;1.85;;
16820;SDS011;8527;49.740;6.604;2022-08-04T14:50:44;3.63;;;1.88;;
16820;SDS011;8527;49.740;6.604;2022-08-04T14:55:50;4.60;;;1.75;;
16820;SDS011;8527;49.740;6.604;2022-08-04T15:00:51;3.13;;;2.47;;
16820;SDS011;8527;49.740;6.604;2022-08-04T15:05:56;4.63;;;2.88;;
16820;SDS011;8527;49.740;6.604;2022-08-04T15:11:01;2.78;;;2.47;;
16820;SDS011;8527;49.740;6.604;2022-08-04T15:16:00;7.05;;;2.70;;
16820;SDS011;8527;49.740;6.604;2022-08-04T15:20:58;4.80;;;2.33;;
16820;SDS011;8527;49.740;6.604;2022-08-04T15:26:02;8.07;;;2.20;;
16820;SDS011;8527;49.740;6.604;2022-08-04T15:31:09;4.40;;;2.17;;
16820;SDS011;8527;49.740;6.604;2022-08-04T15:36:09;3.42;;;1.95;;
16820;SDS011;8527;49.740;6.604;2022-08-04T15:41:18;5.07;;;2.08;;
16820;SDS011;8527;49.740;6.604;2022-08-04T15:46:28;3.63;;;2.20;;
16820;SDS011;8527;49.740;6.604;2022-08-04T15:51:58;5.40;;;2.28;;
16820;SDS011;8527;49.740;6.604;2022-08-04T15:57:04;4.82;;;2.28;;
16820;SDS011;8527;49.740;6.604;2022-08-04T16:12:56;3.88;;;2.13;;
16820;SDS011;8527;49.740;6.604;2022-08-04T16:18:00;2.92;;;2.28;;
16820;SDS011;8527;49.740;6.604;2022-08-04T16:23:00;2.38;;;1.90;;
16820;SDS011;8527;49.740;6.604;2022-08-04T16:33:52;2.75;;;2.00;;
16820;SDS011;8527;49.740;6.604;2022-08-04T16:38:59;4.90;;;1.95;;
16820;SDS011;8527;49.740;6.604;2022-08-04T16:49:38;1.83;;;1.73;;
16820;SDS011;8527;49.740;6.604;2022-08-04T16:54:40;2.80;;;2.07;;
16820;SDS011;8527;49.740;6.604;2022-08-04T16:59:42;3.80;;;2.25;;
16820;SDS011;8527;49.740;6.604;2022-08-04T17:04:50;3.25;;;2.50;;
16820;SDS011;8527;49.740;6.604;2022-08-04T17:09:49;2.65;;;2.00;;
16820;SDS011;8527;49.740;6.604;2022-08-04T17:14:49;7.03;;;2.40;;
16820;SDS011;8527;49.740;6.604;2022-08-04T17:19:52;4.35;;;2.05;;
16820;SDS011;8527;49.740;6.604;2022-08-04T17:24:51;7.38;;;2.25;;
16820;SDS011;8527;49.740;6.604;2022-08-04T17:29:49;4.90;;;2.03;;
16820;SDS011;8527;49.740;6.604;2022-08-04T17:34:48;5.03;;;2.30;;
16820;SDS011;8527;49.740;6.604;2022-08-04T17:40:06;5.65;;;2.20;;
16820;SDS011;8527;49.740;6.604;2022-08-04T17:45:08;6.00;;;2.40;;
16820;SDS011;8527;49.740;6.604;2022-08-04T17:50:10;10.38;;;2.45;;
16820;SDS011;8527;49.740;6.604;2022-08-04T17:55:25;9.07;;;2.30;;
16820;SDS011;8527;49.740;6.604;2022-08-04T18:00:43;4.72;;;2.30;;
16820;SDS011;8527;49.740;6.604;2022-08-04T18:05:46;6.00;;;2.47;;
16820;SDS011;8527;49.740;6.604;2022-08-04T18:10:48;4.20;;;2.05;;
16820;SDS011;8527;49.740;6.604;2022-08-04T18:15:46;4.45;;;2.00;;
16820;SDS011;8527;49.740;6.604;2022-08-04T18:20:48;4.93;;;2.28;;
16820;SDS011;8527;49.740;6.604;2022-08-04T18:25:46;7.15;;;2.17;;
16820;SDS011;8527;49.740;6.604;2022-08-04T18:30:47;5.82;;;2.30;;
16820;SDS011;8527;49.740;6.604;2022-08-04T18:35:52;7.60;;;2.20;;
16820;SDS011;8527;49.740;6.604;2022-08-04T18:40:50;4.35;;;1.95;;
16820;SDS011;8527;49.740;6.604;2022-08-04T18:45:51;5.63;;;2.30;;
16820;SDS011;8527;49.740;6.604;2022-08-04T18:50:55;7.43;;;2.38;;
16820;SDS011;8527;49.740;6.604;2022-08-04T18:55:56;3.88;;;2.17;;
16820;SDS011;8527;49.740;6.604;2022-08-04T19:00:54;4.35;;;2.40;;
16820;SDS011;8527;49.740;6.604;2022-08-04T19:05:56;6.35;;;2.53;;
16820;SDS011;8527;49.740;6.604;2022-08-04T19:10:58;2.60;;;2.40;;
16820;SDS011;8527;49.740;6.604;2022-08-04T19:15:57;7.28;;;2.33;;
16820;SDS011;8527;49.740;6.604;2022-08-04T19:20:58;7.95;;;2.50;;
16820;SDS011;8527;49.740;6.604;2022-08-04T19:25:57;3.00;;;2.60;;
16820;SDS011;8527;49.740;6.604;2022-08-04T19:30:57;8.15;;;2.47;;
16820;SDS011;8527;49.740;6.604;2022-08-04T19:35:58;9.02;;;2.70;;
16820;SDS011;8527;49.740;6.604;2022-08-04T19:40:56;4.20;;;2.25;;
16820;SDS011;8527;49.740;6.604;2022-08-04T19:46:01;7.28;;;2.65;;
16820;SDS011;8527;49.740;6.604;2022-08-04T19:51:03;4.15;;;2.10;;
16820;SDS011;8527;49.740;6.604;2022-08-04T19:56:02;7.43;;;2.45;;
16820;SDS011;8527;49.740;6.604;2022-08-04T20:01:04;6.97;;;2.55;;
16820;SDS011;8527;49.740;6.604;2022-08-04T20:06:05;3.10;;;2.13;;
16820;SDS011;8527;49.740;6.604;2022-08-04T20:11:06;4.38;;;2.15;;
16820;SDS011;8527;49.740;6.604;2022-08-04T20:16:05;3.88;;;2.67;;
16820;SDS011;8527;49.740;6.604;2022-08-04T20:21:13;2.97;;;2.30;;
16820;SDS011;8527;49.740;6.604;2022-08-04T20:26:14;4.53;;;2.35;;
16820;SDS011;8527;49.740;6.604;2022-08-04T20:31:13;3.45;;;2.35;;
16820;SDS011;8527;49.740;6.604;2022-08-04T20:36:17;4.38;;;2.28;;
16820;SDS011;8527;49.740;6.604;2022-08-04T20:41:16;4.97;;;2.40;;
16820;SDS011;8527;49.740;6.604;2022-08-04T20:46:14;7.43;;;2.67;;
16820;SDS011;8527;49.740;6.604;2022-08-04T20:51:13;5.30;;;2.40;;
16820;SDS011;8527;49.740;6.604;2022-08-04T20:56:17;5.68;;;2.58;;
16820;SDS011;8527;49.740;6.604;2022-08-04T21:01:21;7.13;;;2.50;;
16820;SDS011;8527;49.740;6.604;2022-08-04T21:06:19;4.40;;;2.67;;
16820;SDS011;8527;49.740;6.604;2022-08-04T21:11:20;5.65;;;3.03;;
16820;SDS011;8527;49.740;6.604;2022-08-04T21:16:19;6.18;;;2.90;;
16820;SDS011;8527;49.740;6.604;2022-08-04T21:21:20;8.43;;;2.63;;
16820;SDS011;8527;49.740;6.604;2022-08-04T21:26:28;7.43;;;2.78;;
16820;SDS011;8527;49.740;6.604;2022-08-04T21:31:27;7.65;;;2.92;;
16820;SDS011;8527;49.740;6.604;2022-08-04T21:36:25;6.68;;;3.00;;
16820;SDS011;8527;49.740;6.604;2022-08-04T21:41:24;7.30;;;3.35;;
16820;SDS011;8527;49.740;6.604;2022-08-04T21:46:25;7.65;;;3.33;;
16820;SDS011;8527;49.740;6.604;2022-08-04T21:51:25;9.68;;;3.83;;
16820;SDS011;8527;49.740;6.604;2022-08-04T21:56:25;9.75;;;3.38;;
16820;SDS011;8527;49.740;6.604;2022-08-04T22:01:28;13.23;;;3.53;;
16820;SDS011;8527;49.740;6.604;2022-08-04T22:06:27;12.30;;;3.95;;
16820;SDS011;8527;49.740;6.604;2022-08-04T22:11:29;16.05;;;4.85;;
16820;SDS011;8527;49.740;6.604;2022-08-04T22:16:49;15.15;;;4.22;;
16820;SDS011;8527;49.740;6.604;2022-08-04T22:21:53;16.08;;;5.43;;
16820;SDS011;8527;49.740;6.604;2022-08-04T22:26:51;9.55;;;5.53;;
16820;SDS011;8527;49.740;6.604;2022-08-04T22:31:52;13.32;;;5.22;;
16820;SDS011;8527;49.740;6.604;2022-08-04T22:36:51;13.40;;;5.45;;
16820;SDS011;8527;49.740;6.604;2022-08-04T22:41:50;11.70;;;4.65;;
16820;SDS011;8527;49.740;6.604;2022-08-04T22:46:53;11.55;;;5.05;;
16820;SDS011;8527;49.740;6.604;2022-08-04T22:51:56;13.02;;;4.75;;
16820;SDS011;8527;49.740;6.604;2022-08-04T22:56:54;18.73;;;5.68;;
16820;SDS011;8527;49.740;6.604;2022-08-04T23:01:56;13.27;;;5.78;;
16820;SDS011;8527;49.740;6.604;2022-08-04T23:06:54;10.48;;;5.43;;
16820;SDS011;8527;49.740;6.604;2022-08-04T23:11:53;16.25;;;6.18;;
16820;SDS011;8527;49.740;6.604;2022-08-04T23:16:56;14.85;;;5.38;;
16820;SDS011;8527;49.740;6.604;2022-08-04T23:21:55;11.07;;;5.32;;
16820;SDS011;8527;49.740;6.604;2022-08-04T23:26:54;10.90;;;5.57;;
16820;SDS011;8527;49.740;6.604;2022-08-04T23:31:52;8.25;;;4.75;;
16820;SDS011;8527;49.740;6.604;2022-08-04T23:36:53;17.33;;;6.00;;
